This is the latest recevied weather packets stored in our database for station/object HS5NMF. If no packets are shown the sender has not sent any weather packets the latest 10 day(s).
| Time | Temp. | Humidity | Pressure | Rain* | Wind** | Luminosity | Snow |
|---|---|---|---|---|---|---|---|
| 1778175837 | 28.33° C | 85% | 977 hPa | - | - | 0 W/m² | - |
| 1778175514 | 28.89° C | 84% | 977 hPa | - | - | 0 W/m² | - |
| 1778175191 | 28.89° C | 83% | 977 hPa | - | - | 0 W/m² | - |
| 1778174868 | 28.89° C | 81% | 977 hPa | - | - | 0 W/m² | - |
| 1778174544 | 28.89° C | 82% | 977 hPa | - | - | 0 W/m² | - |
| 1778174223 | 28.89° C | 82% | 978 hPa | - | - | 0 W/m² | - |
| 1778173897 | 29.44° C | 80% | 977 hPa | - | - | 0 W/m² | - |
| 1778173573 | 29.44° C | 80% | 978 hPa | - | - | 0 W/m² | - |
| 1778173250 | 28.89° C | 83% | 978 hPa | - | - | 0 W/m² | - |
| 1778172927 | 29.44° C | 80% | 978 hPa | - | - | 0 W/m² | - |
| 1778172601 | 29.44° C | 80% | 978 hPa | - | - | 0 W/m² | - |
| 1778172278 | 29.44° C | 80% | 978 hPa | - | - | 0 W/m² | - |
| 1778171955 | 29.44° C | 81% | 978 hPa | - | - | 0 W/m² | - |
| 1778171630 | 30° C | 78% | 978 hPa | - | - | 0 W/m² | - |
| 1778171306 | 30° C | 80% | 978 hPa | - | - | 0 W/m² | - |
| 1778170983 | 29.44° C | 82% | 978 hPa | - | - | 0 W/m² | - |
| 1778170661 | 29.44° C | 83% | 978 hPa | - | - | 0 W/m² | - |
| 1778170337 | 28.89° C | 86% | 978 hPa | - | - | 0 W/m² | - |
| 1778170016 | 28.89° C | 84% | 978 hPa | - | - | 0 W/m² | - |
| 1778169692 | 29.44° C | 84% | 978 hPa | - | - | 0 W/m² | - |
| 1778169370 | 29.44° C | 84% | 978 hPa | - | - | 0 W/m² | - |
| 1778169048 | 29.44° C | 86% | 978 hPa | - | - | 0 W/m² | - |
| 1778168724 | 30° C | 85% | 978 hPa | - | - | 0 W/m² | - |
| 1778168402 | 30° C | 86% | 978 hPa | - | - | 0 W/m² | - |
| 1778168075 | 30° C | 88% | 979 hPa | - | - | 0 W/m² | - |
* Rain since midnight (hover to see other rain measurements)
** Current wind speed in m/s (hover to see current wind gust speed)